Latest Coastal Weather Observations for Gladstone

IDQ60701

Issued at 6:32 am EST Wednesday 28 September 2016 (issued every 10 minutes, with the page automatically refreshed every 10 minutes)

About coastal observations | Map of coastal stations | Coastal observations for QLD | Marine services | Other Formats
Station Details ID: 039123 Name: GLADSTONE RADAR Lat: -23.86 Lon: 151.26 Height: 74.5 m
Data from the previous 72 hours. | See also: Recent months at Gladstone
Date/Time
EST
Temp
°C
Wind Pressure Rain since
9am
mm
Weather Cloud Vis
km
Sea
Height
m
Swell
Dir  Spd
kts
Gust
kts
hPa Trend Height
m
Period
s
Dir
28/06:30am 17.9 SW 1 5 1014.4 - 0.0 - - - - - - -
28/06:00am 17.2 WSW 6 9 1014.1 - 0.0 - - - - - - -
28/05:30am 17.4 WSW 3 5 1014.0 - 0.0 - - - - - - -
28/05:00am 17.3 SW 5 8 1013.7 - 0.0 - - - - - - -
28/04:30am 17.1 WSW 6 8 1013.3 - 0.0 - - - - - - -
28/04:00am 17.4 WSW 6 8 1013.1 - 0.0 - - - - - - -
28/03:30am 18.2 WSW 5 8 1012.9 - 0.0 - - - - - - -
28/03:00am 19.4 SW 6 8 1013.0 - 0.0 - - - - - - -
28/02:30am 19.4 SW 5 8 1013.1 - 0.0 - - - - - - -
28/02:00am 19.8 SW 6 10 1012.9 - 0.0 - - - - - - -
28/01:30am 19.9 SW 7 11 1013.3 - 0.0 - - - - - - -
28/01:00am 19.5 SSW 6 9 1013.6 - 0.0 - - - - - - -
28/12:30am 19.6 SSW 8 11 1014.0 - 0.0 - - - - - - -
28/12:00am 19.8 SW 6 11 1013.9 - 0.0 - - - - - - -
 
Date/Time
EST
Temp
°C
Wind Pressure Rain since
9am
mm
Weather Cloud Vis
km
Sea
Height
m
Swell
Dir  Spd
kts
Gust
kts
hPa Trend Height
m
Period
s
Dir
27/11:30pm 20.0 SW 5 8 1014.4 - 0.0 - - - - - - -
27/11:00pm 20.6 SW 6 9 1014.4 - 0.0 - - - - - - -
27/10:30pm 20.8 SW 8 11 1014.1 - 0.0 - - - - - - -
27/10:00pm 20.7 SW 5 9 1014.6 - 0.0 - - - - - - -
27/09:30pm 20.7 SSW 5 7 1014.6 - 0.0 - - - - - - -
27/09:00pm 20.7 SSW 4 6 1014.3 - 0.0 - - - - - - -
27/08:30pm 20.8 SSE 5 8 1014.1 - 0.0 - - - - - - -
27/08:00pm 20.9 S 6 9 1013.8 - 0.0 - - - - - - -
27/07:30pm 22.0 WSW 5 10 1013.8 - 0.0 - - - - - - -
27/07:00pm 21.5 WNW 1 5 1013.4 - 0.0 - - - - - - -
27/06:30pm 22.1 NNW 5 8 1013.1 - 0.0 - - - - - - -
27/06:00pm 22.1 NNE 5 7 1013.0 - 0.0 - - - - - - -
27/05:30pm 22.7 NE 4 7 1012.5 - 0.0 - - - - - - -
27/05:00pm 23.4 NNE 4 6 1012.3 - 0.0 - - - - - - -
27/04:30pm 23.7 NNE 6 8 1012.2 - 0.0 - - - - - - -
27/04:00pm 23.9 NE 3 6 1012.0 - 0.0 - - - - - - -
27/03:30pm 23.8 NE 5 9 1012.1 - 0.0 - - - - - - -
27/03:00pm 24.2 NE 7 11 1012.0 - 0.0 - - - - - - -
27/02:30pm 25.2 NNE 6 12 1012.0 - 0.0 - - - - - - -
27/02:00pm 28.0 NNE 4 8 1012.0 - 0.0 - - - - - - -
27/01:30pm 27.8 ENE 4 7 1012.6 - 0.0 - - - - - - -
27/01:00pm 28.4 NW 5 11 1012.9 - 0.0 - - - - - - -
27/12:30pm 27.1 NNW 3 7 1013.5 - 0.0 - - - - - - -
27/12:00pm 27.8 NNE 2 5 1013.9 - 0.0 - - - - - - -
27/11:30am 26.6 WNW 3 8 1014.5 - 0.0 - - - - - - -
27/11:00am 26.8 SW 4 8 1015.0 - 0.0 - - - - - - -
27/10:30am 26.1 W 4 9 1015.8 - 0.0 - - - - - - -
27/10:00am 25.8 WSW 5 9 1015.6 - 0.0 - - - - - - -
27/09:30am 23.7 S 6 12 1016.0 - 0.0 - - - - - - -
27/09:00am 23.3 SSE 9 15 1016.2 - 0.0 - - - - - - -
27/08:30am 22.3 SSE 7 11 1016.4 - 0.0 - - - - - - -
27/08:00am 21.6 S 8 12 1015.8 - 0.0 - - - - - - -
27/07:30am 20.2 S 4 7 1015.3 - 0.0 - - - - - - -
27/07:00am 19.4 S 5 8 1014.9 - 0.0 - - - - - - -
27/06:30am 18.8 SSW 7 10 1014.5 - 0.0 - - - - - - -
27/06:00am 18.9 SSW 8 11 1014.0 - 0.0 - - - - - - -
27/05:30am 18.8 SSW 7 10 1013.7 - 0.0 - - - - - - -
27/05:00am 18.4 SW 7 10 1013.6 - 0.0 - - - - - - -
27/04:30am 18.3 WSW 5 8 1013.3 - 0.0 - - - - - - -
27/04:00am 17.7 WSW 5 7 1012.8 - 0.0 - - - - - - -
27/03:30am 17.6 WSW 5 8 1012.7 - 0.0 - - - - - - -
27/03:00am 17.9 SW 5 7 1012.2 - 0.0 - - - - - - -
27/02:30am 18.1 WSW 5 7 1012.6 - 0.0 - - - - - - -
27/02:00am 18.3 WSW 4 5 1012.4 - 0.0 - - - - - - -
27/01:30am 17.9 WSW 5 7 1012.8 - 0.0 - - - - - - -
27/01:00am 17.9 WSW 5 7 1013.2 - 0.0 - - - - - - -
27/12:30am 18.3 WSW 5 6 1013.5 - 0.0 - - - - - - -
27/12:00am 19.1 CALM 0 3 1013.5 - 0.0 - - - - - - -
 
Date/Time
EST
Temp
°C
Wind Pressure Rain since
9am
mm
Weather Cloud Vis
km
Sea
Height
m
Swell
Dir  Spd
kts
Gust
kts
hPa Trend Height
m
Period
s
Dir
26/11:30pm 19.0 E 1 3 1013.4 - 0.0 - - - - - - -
26/11:00pm 19.4 ESE 4 4 1013.3 - 0.0 - - - - - - -
26/10:30pm 19.4 NE 2 5 1013.4 - 0.0 - - - - - - -
26/10:00pm 19.6 CALM 0 0 1013.7 - 0.0 - - - - - - -
26/09:30pm 20.2 NNW 2 4 1013.7 - 0.0 - - - - - - -
26/09:00pm 20.3 NNW 5 7 1013.4 - 0.0 - - - - - - -
26/08:30pm 20.5 NNW 6 8 1013.3 - 0.0 - - - - - - -
26/08:00pm 20.6 NNW 5 7 1012.9 - 0.0 - - - - - - -
26/07:30pm 20.5 N 4 7 1012.9 - 0.0 - - - - - - -
26/07:00pm 20.3 N 4 6 1012.6 - 0.0 - - - - - - -
26/06:30pm 20.5 N 4 7 1012.2 - 0.0 - - - - - - -
26/06:00pm 20.8 NNE 5 7 1011.9 - 0.0 - - - - - - -
26/05:30pm 21.4 NE 6 10 1011.3 - 0.0 - - - - - - -
26/05:00pm 21.9 NNE 7 12 1010.9 - 0.0 - - - - - - -
26/04:30pm 22.9 NE 8 12 1010.6 - 0.0 - - - - - - -
26/04:00pm 24.0 NE 8 14 1010.6 - 0.0 - - - - - - -
26/03:30pm 24.5 NE 8 14 1010.3 - 0.0 - - - - - - -
26/03:00pm 24.8 NE 9 15 1010.5 - 0.0 - - - - - - -
26/02:30pm 26.0 NE 9 15 1010.4 - 0.0 - - - - - - -
26/02:00pm 26.9 ENE 9 13 1010.5 - 0.0 - - - - - - -
26/01:30pm 26.9 ENE 9 13 1010.9 - 0.0 - - - - - - -
26/01:00pm 27.1 ENE 10 14 1011.4 - 0.0 - - - - - - -
26/12:30pm 27.4 ENE 8 12 1012.0 - 0.0 - - - - - - -
26/12:00pm 27.6 NE 8 12 1012.4 - 0.0 - - - - - - -
26/11:30am 26.8 NE 7 10 1013.0 - 0.0 - - - - - - -
26/11:00am 26.8 NE 6 9 1013.6 - 0.0 - - - - - - -
26/10:30am 25.4 ENE 3 7 1014.1 - 0.0 - - - - - - -
26/10:00am 25.4 SE 5 9 1014.4 - 0.0 - - - - - - -
26/09:30am 24.4 S 6 12 1014.6 - 0.0 - - - - - - -
26/09:00am 24.0 ESE 5 7 1014.7 - 3.2 - - - - - - -
26/08:30am 23.3 SE 7 11 1014.5 - 3.2 - - - - - - -
26/08:00am 22.4 SE 6 10 1014.4 - 3.2 - - - - - - -
26/07:30am 21.6 SE 5 8 1014.0 - 3.2 - - - - - - -
26/07:00am 20.8 SE 5 7 1013.5 - 3.2 - - - - - - -
26/06:30am 20.2 SE 4 6 1013.2 - 3.2 - - - - - - -
26/06:00am 19.5 S 6 7 1012.8 - 3.2 - - - - - - -
26/05:30am 19.4 SSW 7 9 1012.4 - 3.2 - - - - - - -
26/05:00am 19.4 SSW 7 9 1011.9 - 3.2 - - - - - - -
26/04:30am 19.8 SSW 7 9 1011.5 - 3.2 - - - - - - -
26/04:00am 20.4 SSE 6 9 1011.3 - 3.2 - - - - - - -
26/03:30am 20.4 S 7 10 1010.6 - 3.2 - - - - - - -
26/03:00am 20.7 SSW 8 12 1010.6 - 3.2 - - - - - - -
26/02:30am 21.2 S 7 10 1010.5 - 3.2 - - - - - - -
26/02:00am 21.8 S 8 12 1010.5 - 3.2 - - - - - - -
26/01:30am 21.7 SSW 8 12 1010.6 - 3.2 - - - - - - -
26/01:00am 21.8 SSW 9 13 1010.6 - 3.2 - - - - - - -
26/12:30am 21.2 SE 5 7 1010.8 - 3.2 - - - - - - -
26/12:00am 21.8 SSE 6 7 1010.9 - 3.2 - - - - - - -
 
Date/Time
EST
Temp
°C
Wind Pressure Rain since
9am
mm
Weather Cloud Vis
km
Sea
Height
m
Swell
Dir  Spd
kts
Gust
kts
hPa Trend Height
m
Period
s
Dir
25/11:30pm 22.3 SSE 7 10 1010.9 - 3.2 - - - - - - -
25/11:00pm 23.7 SW 8 12 1010.8 - 3.2 - - - - - - -
25/10:30pm 22.2 WSW 5 5 1010.6 - 3.2 - - - - - - -
25/10:00pm 22.3 WSW 4 5 1010.2 - 3.2 - - - - - - -
25/09:30pm 22.4 W 5 6 1009.8 - 3.2 - - - - - - -
25/09:00pm 22.7 W 5 8 1009.8 - 3.2 - - - - - - -
25/08:30pm 22.9 W 4 6 1009.4 - 3.2 - - - - - - -
25/08:00pm 23.4 NW 4 6 1009.1 - 3.2 - - - - - - -
25/07:30pm 23.6 NNW 5 8 1008.6 - 3.2 - - - - - - -
25/07:00pm 23.6 N 4 7 1008.4 - 3.2 - - - - - - -
25/06:30pm 24.3 NNW 5 9 1007.9 - 3.2 - - - - - - -
25/06:00pm 24.8 N 7 11 1007.4 - 3.2 - - - - - - -
25/05:30pm 24.8 NNE 6 10 1006.9 - 3.2 - - - - - - -
25/05:00pm 24.2 NE 7 11 1006.6 - 3.2 - - - - - - -
25/04:30pm 25.2 NNE 4 11 1006.3 - 3.2 - - - - - - -
25/04:00pm 27.0 NNE 5 10 1006.3 - 0.0 - - - - - - -
25/03:30pm 28.5 NNE 7 12 1005.8 - 0.0 - - - - - - -
25/03:00pm 27.9 NE 7 12 1006.0 - 0.0 - - - - - - -
25/02:30pm 31.1 NNW 7 12 1006.0 - 0.0 - - - - - - -
25/02:00pm 31.2 N 6 14 1006.4 - 0.0 - - - - - - -
25/01:30pm 30.8 NW 8 15 1006.7 - 0.0 - - - - - - -
25/01:00pm 30.9 NNW 8 14 1007.2 - 0.0 - - - - - - -
25/12:30pm 31.2 W 6 11 1007.7 - 0.0 - - - - - - -
25/12:00pm 29.0 NW 8 16 1008.0 - 0.0 - - - - - - -
25/11:30am 29.9 N 8 16 1008.8 - 0.0 - - - - - - -
25/11:00am 27.8 NNW 8 14 1009.2 - 0.0 - - - - - - -
25/10:30am 27.6 NW 7 12 1009.8 - 0.0 - - - - - - -
25/10:00am 26.9 NW 7 12 1010.1 - 0.0 - - - - - - -
25/09:30am 25.5 NW 5 12 1010.2 - 0.0 - - - - - - -
25/09:00am 25.5 WNW 4 9 1010.4 - 0.0 - - - - - - -
25/08:30am 24.5 WNW 7 12 1010.6 - 0.0 - - - - - - -
25/08:00am 24.6 NW 6 10 1010.4 - 0.0 - - - - - - -
25/07:30am 23.6 NNW 7 11 1010.3 - 0.0 - - - - - - -
25/07:00am 23.3 NNW 6 10 1010.0 - 0.0 - - - - - - -

Other Formats:

Comma delimited format used in spreadsheet applications
http://www.bom.gov.au/fwo/IDQ60701/IDQ60701.94380.axf

JavaScript Object Notation format (JSON) in row-major order
http://www.bom.gov.au/fwo/IDQ60701/IDQ60701.94380.json